Arock, OR

2:23 AM MDT on October 02, 2014 (GMT -0600)
RAWS GRASSY MOUNTAIN OR US | Change Station
CLOSE
Current Station
Personal Weather Station
Location: Jordan Valley, OR
Elevation: 1389 m
Nearby Weather Stations

Elev 1389 m 42.63 °N, 117.40 °W | Updated 59 minutes ago

Clear
Clear
6.7 °C
Feels Like 4 °C
N
12.9
Wind Variable Wind from SE
Gusts 16.1 km/h

Today
High -- | Low -- °C
--% Chance of Precip.
Yesterday
High -- | Low -- °C
Precip. -- mm
7:48 AM 7:29 PM
First Quarter, 56% visible
Pressure 1022 hPa
Visibility 16.1 kilometers
Clouds Clear
Windchill 4 °C
Dew Point 1 °C
Humidity 64%
Rainfall 0 mm
Snow Depth Not available.
UV 0 out of 12
Pollen 7.40 out of 12
Air Quality Not available.
Flu Activity Not available.
METAR KEUL 020815Z AUTO 10004KT 10SM CLR 06/M01 A3018 RMK AO1

More Conditions Fewer Conditions

Pressure 1022 hPa
Visibility 16.1 kilometers
Clouds Clear
Windchill 4 °C
Dew Point 1 °C
Humidity 64%
Rainfall 0 mm
Snow Depth Not available.
UV 0 out of 12
Pollen 7.40 out of 12
Air Quality Not available.
Flu Activity Not available.
METAR KEUL 020815Z AUTO 10004KT 10SM CLR 06/M01 A3018 RMK AO1

More Conditions Fewer Conditions

10-Day Weather Forecast

Almanac

Astronomy

Oct. 02, 2014 Rise Set
Actual Time 7:48 AM MDT 7:29 PM MDT
Civil Twilight 7:20 AM MDT 7:57 PM MDT
Nautical Twilight 6:47 AM MDT 8:30 PM MDT
Astronomical Twilight 6:14 AM MDT 9:03 PM MDT
Moon 3:47 PM MDT 1:01 AM MDT
Length of Visible Light 12h 37m
Length of Day
11h 40m
Tomorrow will be 2m 53s shorter.
First Quarter, 56% of the Moon is Illuminated
Today
First Quarter
Oct 8
Full
Oct 15
Last Quarter
Oct 23
New
Oct 30
First Quarter

Today's Extremes

State Highs State Lows

Community

WunderPhotos

Upload Photos

1,758,196 photos uploaded!

WunderBlogs® & News

By Dr. Jeff Masters
Director of Meteorology, Weather Underground
By Kari Strenfel
Meteorologist, Weather Underground
By Christopher C. Burt
Weather Historian, Weather Underground
October 2, 2014
October 2, 2014
October 2, 2014

Nearby

Snow Depth

Station Depth Elevation
Daly Lake 0 in 3600 ft
Clackamas Lake 0 in 3400 ft
Snow Mountain 0 in 6220 ft
Madison Butte 0 in 5250 ft
Blue Mountain Spring 0 in 5900 ft

Earthquake Activity

City Distance Mag. Time & Date
No recent earthquake activity has been reported nearby.
Minimum magnitude displayed is 2.5.

Coastal Water Temperatures

Place Temperature
No Stations Reporting

Nearby Weather Stations